createdAt,value
2023-01-26T00:02:10.399Z,0.90
2023-01-26T00:04:41.001Z,0.90
2023-01-26T00:07:10.052Z,0.90
2023-01-26T00:09:39.374Z,0.90
2023-01-26T00:12:08.917Z,0.90
2023-01-26T00:14:51.232Z,0.90
2023-01-26T00:17:27.427Z,0.90
2023-01-26T00:19:59.846Z,0.90
2023-01-26T00:22:29.565Z,0.90
2023-01-26T00:24:58.758Z,0.90
2023-01-26T00:27:27.844Z,0.90
2023-01-26T00:29:56.933Z,1.00
2023-01-26T00:32:26.103Z,0.90
2023-01-26T00:34:55.365Z,0.90
2023-01-26T00:37:26.172Z,0.90
2023-01-26T00:39:55.510Z,0.90
2023-01-26T00:42:26.249Z,1.00
2023-01-26T00:44:55.385Z,1.00
2023-01-26T00:47:24.346Z,1.00
2023-01-26T00:49:55.408Z,1.00
2023-01-26T00:52:26.145Z,1.00
2023-01-26T00:54:55.440Z,1.00
2023-01-26T00:57:24.543Z,1.00
2023-01-26T00:59:53.600Z,1.00
2023-01-26T01:02:23.016Z,1.00
2023-01-26T01:04:52.055Z,1.00
2023-01-26T01:07:22.232Z,0.90
2023-01-26T01:09:53.142Z,0.90
2023-01-26T01:12:22.641Z,0.90
2023-01-26T01:14:52.003Z,1.00
2023-01-26T01:17:21.071Z,1.00
2023-01-26T01:19:50.609Z,1.00
2023-01-26T01:22:24.047Z,1.10
2023-01-26T01:24:55.118Z,1.00
2023-01-26T01:27:26.387Z,0.90
2023-01-26T01:29:55.615Z,0.90
2023-01-26T01:32:24.940Z,0.90
2023-01-26T01:34:54.158Z,0.90
2023-01-26T01:37:23.767Z,0.90
2023-01-26T01:39:54.990Z,0.90
2023-01-26T01:42:25.066Z,0.90
2023-01-26T01:45:35.327Z,0.90
2023-01-26T01:48:07.164Z,1.00
2023-01-26T01:50:40.251Z,1.00
2023-01-26T01:53:13.549Z,0.90
2023-01-26T01:55:45.031Z,0.90
2023-01-26T01:58:15.244Z,1.50
2023-01-26T02:00:44.204Z,0.90
2023-01-26T02:03:15.175Z,0.80
2023-01-26T02:06:03.911Z,0.80
2023-01-26T02:08:35.998Z,0.90
2023-01-26T02:11:09.644Z,0.90
2023-01-26T02:13:40.451Z,0.90
2023-01-26T02:16:09.544Z,1.00
2023-01-26T02:18:39.115Z,0.80
2023-01-26T02:21:10.425Z,1.20
2023-01-26T02:23:52.549Z,0.80
2023-01-26T02:26:25.352Z,0.80
2023-01-26T02:28:54.865Z,0.80
2023-01-26T02:31:25.365Z,0.80
2023-01-26T02:33:57.213Z,0.80
2023-01-26T02:36:28.025Z,0.90
2023-01-26T02:39:23.643Z,0.90
2023-01-26T02:42:11.984Z,0.80
2023-01-26T02:44:43.212Z,1.40
2023-01-26T02:47:14.243Z,1.40
2023-01-26T02:49:48.337Z,1.40
2023-01-26T02:52:20.887Z,1.40
2023-01-26T02:55:13.847Z,0.80
2023-01-26T02:57:45.882Z,0.90
2023-01-26T03:00:17.575Z,0.70
2023-01-26T03:02:48.329Z,0.70
2023-01-26T03:05:17.342Z,1.40
2023-01-26T03:07:46.511Z,0.70
2023-01-26T03:10:16.482Z,0.70
2023-01-26T03:12:46.894Z,0.70
2023-01-26T03:15:33.021Z,0.70
2023-01-26T03:18:37.966Z,0.80
2023-01-26T03:21:26.370Z,1.00
2023-01-26T03:24:12.944Z,0.70
2023-01-26T03:27:00.105Z,0.90
2023-01-26T03:29:30.994Z,0.80
2023-01-26T03:32:03.896Z,0.80
2023-01-26T03:34:33.959Z,1.10
2023-01-26T03:37:03.371Z,0.80
2023-01-26T03:39:58.460Z,0.80
2023-01-26T03:42:44.689Z,0.80
2023-01-26T03:45:32.435Z,1.20
2023-01-26T03:48:24.313Z,0.90
2023-01-26T03:51:10.354Z,0.80
2023-01-26T03:53:56.554Z,0.70
2023-01-26T03:56:26.495Z,0.70
2023-01-26T03:59:09.010Z,0.80
2023-01-26T04:01:57.574Z,0.70
2023-01-26T04:04:43.640Z,0.70
2023-01-26T04:07:31.043Z,0.70
2023-01-26T04:10:00.152Z,1.00
2023-01-26T04:12:29.104Z,0.80
2023-01-26T04:15:31.736Z,0.80
2023-01-26T04:18:25.034Z,0.80
2023-01-26T04:21:11.380Z,1.50
2023-01-26T04:23:44.736Z,0.80
2023-01-26T04:26:14.698Z,0.80
2023-01-26T04:28:44.067Z,0.80
2023-01-26T04:31:13.646Z,0.80
2023-01-26T04:33:44.101Z,0.70
2023-01-26T04:36:13.449Z,1.40
2023-01-26T04:38:46.942Z,0.90
2023-01-26T04:41:19.351Z,0.70
2023-01-26T04:43:53.093Z,0.70
2023-01-26T04:46:22.460Z,0.60
2023-01-26T04:48:55.278Z,0.60
2023-01-26T04:51:25.381Z,0.60
2023-01-26T04:53:54.098Z,0.90
2023-01-26T04:56:27.577Z,0.70
2023-01-26T04:58:57.945Z,0.70
2023-01-26T05:01:27.229Z,0.70
2023-01-26T05:03:57.962Z,0.70
2023-01-26T05:06:26.983Z,0.70
2023-01-26T05:08:56.979Z,0.70
2023-01-26T05:11:26.974Z,0.70
2023-01-26T05:14:06.672Z,0.70
2023-01-26T05:17:08.168Z,0.80
2023-01-26T05:20:09.671Z,0.60
2023-01-26T05:22:58.917Z,0.60
2023-01-26T05:25:59.746Z,0.60
2023-01-26T05:28:29.719Z,0.60
2023-01-26T05:30:58.660Z,0.50
2023-01-26T05:33:27.873Z,0.90
2023-01-26T05:35:59.097Z,0.70
2023-01-26T05:38:28.205Z,0.50
2023-01-26T05:40:57.434Z,0.50
2023-01-26T05:43:27.523Z,0.40
2023-01-26T05:46:19.817Z,0.50
2023-01-26T05:48:48.612Z,0.40
2023-01-26T05:51:19.054Z,0.50
2023-01-26T05:53:48.875Z,0.50
2023-01-26T05:56:17.644Z,0.70
2023-01-26T05:58:52.184Z,0.80
2023-01-26T06:01:21.154Z,0.40
2023-01-26T06:03:58.008Z,1.30
2023-01-26T06:06:31.529Z,0.60
2023-01-26T06:09:24.719Z,0.60
2023-01-26T06:12:07.740Z,0.40
2023-01-26T06:14:58.446Z,0.40
2023-01-26T06:17:39.153Z,1.10
2023-01-26T06:20:17.856Z,0.40
2023-01-26T06:23:01.966Z,0.40
2023-01-26T06:25:34.041Z,0.30
2023-01-26T06:28:04.703Z,0.30
2023-01-26T06:30:35.067Z,0.40
2023-01-26T06:33:08.755Z,0.30
2023-01-26T06:35:39.887Z,0.40
2023-01-26T06:38:15.712Z,1.00
2023-01-26T06:40:45.957Z,1.00
2023-01-26T06:43:15.310Z,0.50
2023-01-26T06:45:45.205Z,0.40
2023-01-26T06:48:14.294Z,0.40
2023-01-26T06:50:47.121Z,0.50
2023-01-26T06:53:30.931Z,0.40
2023-01-26T06:56:29.029Z,0.50
2023-01-26T06:59:21.137Z,0.40
2023-01-26T07:01:50.454Z,0.40
2023-01-26T07:04:19.714Z,1.00
2023-01-26T07:06:48.951Z,0.70
2023-01-26T07:09:19.186Z,1.40
2023-01-26T07:11:49.567Z,0.50
2023-01-26T07:14:18.711Z,0.50
2023-01-26T07:16:48.204Z,0.50
2023-01-26T07:19:16.812Z,0.90
2023-01-26T07:21:45.759Z,0.60
2023-01-26T07:24:15.034Z,0.60
2023-01-26T07:26:45.695Z,0.50
2023-01-26T07:29:14.637Z,0.60
2023-01-26T07:31:48.005Z,0.60
2023-01-26T07:34:17.317Z,0.60
2023-01-26T07:36:46.555Z,0.90
2023-01-26T07:39:15.930Z,0.60
2023-01-26T07:41:46.442Z,0.60
2023-01-26T07:44:35.952Z,1.00
2023-01-26T07:47:08.269Z,0.70
2023-01-26T07:49:37.412Z,0.70
2023-01-26T07:52:07.563Z,0.70
2023-01-26T07:54:37.590Z,0.70
2023-01-26T07:57:09.668Z,0.80
2023-01-26T07:59:38.852Z,0.80
2023-01-26T08:02:08.397Z,1.10
2023-01-26T08:04:37.648Z,0.90
2023-01-26T08:07:08.232Z,0.90
2023-01-26T08:09:37.930Z,0.90
2023-01-26T08:12:09.479Z,0.80
2023-01-26T08:14:46.713Z,0.80
2023-01-26T08:17:17.810Z,1.50
2023-01-26T08:19:46.502Z,1.00
2023-01-26T08:22:15.735Z,0.90
2023-01-26T08:24:44.642Z,0.90
2023-01-26T08:27:15.371Z,0.90
2023-01-26T08:29:44.465Z,0.90
2023-01-26T08:32:13.024Z,0.90
2023-01-26T08:34:41.949Z,1.00
2023-01-26T08:37:11.351Z,0.80
2023-01-26T08:39:40.693Z,0.80
2023-01-26T08:42:10.482Z,0.80
2023-01-26T08:44:40.763Z,0.80
2023-01-26T08:47:11.206Z,0.80
2023-01-26T08:49:40.214Z,1.60
2023-01-26T08:52:09.023Z,0.80
2023-01-26T08:54:38.355Z,0.90
2023-01-26T08:57:07.364Z,1.20
2023-01-26T08:59:37.860Z,0.80
2023-01-26T09:02:08.383Z,0.90
2023-01-26T09:04:37.519Z,0.80
2023-01-26T09:07:06.949Z,0.90
2023-01-26T09:09:36.361Z,0.90
2023-01-26T09:12:06.144Z,0.90
2023-01-26T09:14:35.053Z,1.00
2023-01-26T09:17:04.141Z,1.00
2023-01-26T09:19:35.137Z,1.10
2023-01-26T09:22:03.958Z,1.10
2023-01-26T09:24:34.901Z,1.10
2023-01-26T09:27:03.983Z,1.10
2023-01-26T09:29:33.344Z,1.10
2023-01-26T09:32:02.452Z,1.10
2023-01-26T09:34:31.439Z,1.10
2023-01-26T09:37:01.892Z,1.20
2023-01-26T09:39:32.480Z,1.30
2023-01-26T09:42:23.788Z,1.30
2023-01-26T09:45:02.410Z,1.40
2023-01-26T09:47:39.579Z,1.40
2023-01-26T09:50:14.347Z,1.50
2023-01-26T09:52:52.935Z,1.50
2023-01-26T09:55:25.172Z,1.70
2023-01-26T09:57:58.598Z,1.60
2023-01-26T10:00:33.101Z,1.70
2023-01-26T10:03:13.569Z,1.70
2023-01-26T10:05:49.810Z,1.80
2023-01-26T10:08:40.165Z,1.80
2023-01-26T10:11:19.778Z,1.80
2023-01-26T10:13:55.234Z,1.80
2023-01-26T10:16:26.060Z,1.80
2023-01-26T10:18:59.760Z,1.90
2023-01-26T10:21:34.972Z,1.90
2023-01-26T10:24:06.475Z,2.00
2023-01-26T10:26:36.380Z,2.00
2023-01-26T10:29:07.075Z,2.10
2023-01-26T10:31:36.334Z,2.30
2023-01-26T10:34:14.959Z,2.20
2023-01-26T10:36:46.277Z,2.30
2023-01-26T10:39:18.766Z,2.30
2023-01-26T10:42:01.986Z,2.30
2023-01-26T10:44:35.933Z,2.20
2023-01-26T10:47:10.446Z,2.20
2023-01-26T10:49:39.236Z,2.10
2023-01-26T10:52:11.470Z,2.10
2023-01-26T10:54:44.386Z,2.00
2023-01-26T10:57:22.524Z,2.00
2023-01-26T10:59:55.336Z,2.00
2023-01-26T11:02:29.329Z,1.90
2023-01-26T11:05:23.536Z,1.90
2023-01-26T11:08:00.644Z,2.00
2023-01-26T11:10:34.561Z,1.90
2023-01-26T11:13:24.928Z,1.90
2023-01-26T11:16:06.440Z,1.90
2023-01-26T11:18:46.321Z,1.90
2023-01-26T11:21:21.227Z,1.90
2023-01-26T11:24:01.320Z,1.80
2023-01-26T11:27:14.585Z,1.80
2023-01-26T11:30:06.533Z,1.80
2023-01-26T11:32:44.669Z,1.80
2023-01-26T11:35:24.094Z,1.80
2023-01-26T11:38:04.103Z,1.80
2023-01-26T11:40:40.868Z,1.80
2023-01-26T11:43:33.373Z,1.70
2023-01-26T11:46:16.967Z,1.70
2023-01-26T11:48:55.919Z,1.70
2023-01-26T11:51:39.146Z,1.70
2023-01-26T11:54:30.589Z,1.60
2023-01-26T11:57:06.422Z,1.60
2023-01-26T11:59:41.764Z,2.00
2023-01-26T12:02:30.758Z,1.50
2023-01-26T12:05:06.751Z,1.50
2023-01-26T12:07:51.703Z,1.50
2023-01-26T12:10:26.517Z,1.40
2023-01-26T12:13:02.431Z,1.40
2023-01-26T12:15:39.409Z,1.30
2023-01-26T12:18:17.380Z,1.30
2023-01-26T12:20:52.508Z,1.20
2023-01-26T12:23:31.488Z,1.20
2023-01-26T12:26:04.902Z,1.10
2023-01-26T12:28:40.269Z,1.10
2023-01-26T12:31:18.131Z,1.10
2023-01-26T12:33:48.400Z,1.10
2023-01-26T12:36:25.909Z,1.00
2023-01-26T12:39:08.595Z,1.00
2023-01-26T12:42:05.229Z,1.00
2023-01-26T12:44:40.372Z,0.90
2023-01-26T12:47:19.393Z,0.90
2023-01-26T12:49:57.370Z,0.90
2023-01-26T12:52:30.765Z,0.90
2023-01-26T12:55:04.471Z,0.90
2023-01-26T12:57:39.017Z,0.80
2023-01-26T13:00:21.097Z,0.80
2023-01-26T13:02:56.880Z,0.90
2023-01-26T13:05:28.986Z,0.90
2023-01-26T13:07:58.227Z,0.90
2023-01-26T13:10:46.622Z,0.90
2023-01-26T13:13:32.493Z,0.90
2023-01-26T13:16:35.907Z,0.90
2023-01-26T13:19:06.814Z,0.80
2023-01-26T13:21:45.961Z,0.80
2023-01-26T13:24:47.429Z,0.80
2023-01-26T13:27:32.669Z,0.90
2023-01-26T13:30:02.443Z,0.80
2023-01-26T13:33:20.492Z,0.90
2023-01-26T13:35:53.206Z,0.80
2023-01-26T13:38:30.369Z,0.90
2023-01-26T13:40:59.777Z,1.10
2023-01-26T13:43:40.220Z,0.90
2023-01-26T13:46:14.463Z,0.80
2023-01-26T13:48:46.765Z,0.90
2023-01-26T13:51:20.056Z,0.90
2023-01-26T13:54:05.776Z,0.90
2023-01-26T13:56:36.708Z,1.00
2023-01-26T13:59:11.953Z,1.60
2023-01-26T14:01:46.607Z,1.00
2023-01-26T14:04:21.076Z,1.00
2023-01-26T14:06:57.877Z,0.90
2023-01-26T14:09:30.089Z,0.90
2023-01-26T14:12:02.723Z,0.90
2023-01-26T14:14:35.673Z,0.90
2023-01-26T14:17:09.971Z,0.80
2023-01-26T14:19:43.153Z,0.80
2023-01-26T14:22:20.658Z,0.80
2023-01-26T14:24:55.681Z,0.80
2023-01-26T14:27:34.241Z,0.70
2023-01-26T14:30:09.592Z,0.80
2023-01-26T14:32:38.705Z,0.70
2023-01-26T14:35:23.772Z,0.70
2023-01-26T14:38:07.360Z,0.70
2023-01-26T14:40:36.851Z,0.70
2023-01-26T14:43:06.446Z,0.60
2023-01-26T14:45:35.646Z,0.60
2023-01-26T14:48:09.661Z,0.60
2023-01-26T14:50:39.251Z,0.60
2023-01-26T14:53:20.271Z,0.60
2023-01-26T14:55:50.943Z,0.50
2023-01-26T14:58:25.899Z,0.50
2023-01-26T15:00:55.660Z,0.50
2023-01-26T15:03:32.009Z,0.60
2023-01-26T15:06:20.810Z,0.50
2023-01-26T15:09:22.467Z,0.40
2023-01-26T15:12:13.080Z,0.40
2023-01-26T15:14:51.312Z,1.00
2023-01-26T15:17:37.955Z,0.30
2023-01-26T15:20:28.598Z,0.30
2023-01-26T15:22:58.266Z,0.30
2023-01-26T15:25:30.203Z,0.30
2023-01-26T15:28:01.354Z,0.30
2023-01-26T15:30:33.941Z,0.90
2023-01-26T15:33:04.114Z,0.30
2023-01-26T15:35:34.683Z,0.30
2023-01-26T15:38:05.693Z,0.30
2023-01-26T15:40:36.418Z,0.30
2023-01-26T15:43:14.091Z,0.20
2023-01-26T15:45:45.273Z,0.20
2023-01-26T15:48:14.189Z,0.20
2023-01-26T15:50:43.429Z,0.10
2023-01-26T15:53:15.493Z,0.10
2023-01-26T15:55:46.831Z,0.10
2023-01-26T15:58:15.872Z,0.10
2023-01-26T16:00:45.081Z,0.10
2023-01-26T16:03:17.388Z,0.10
2023-01-26T16:05:48.526Z,0.10
2023-01-26T16:08:21.067Z,0.10
2023-01-26T16:10:52.410Z,0.10
2023-01-26T16:13:21.912Z,0.10
2023-01-26T16:15:55.618Z,0.10
2023-01-26T16:18:25.115Z,0.10
2023-01-26T16:20:54.348Z,0.10
2023-01-26T16:23:26.715Z,0.10
2023-01-26T16:25:58.268Z,0.10
2023-01-26T16:28:28.061Z,0.10
2023-01-26T16:30:57.259Z,0.10
2023-01-26T16:33:26.166Z,0.10
2023-01-26T16:35:55.970Z,0.00
2023-01-26T16:38:26.699Z,0.10
2023-01-26T16:40:57.662Z,0.10
2023-01-26T16:43:29.622Z,0.10
2023-01-26T16:45:59.879Z,0.10
2023-01-26T16:48:32.133Z,0.10
2023-01-26T16:51:01.662Z,0.10
2023-01-26T16:53:33.394Z,0.10
2023-01-26T16:56:05.288Z,0.10
2023-01-26T16:58:34.234Z,0.10
2023-01-26T17:01:03.477Z,0.60
2023-01-26T17:03:32.428Z,0.10
2023-01-26T17:06:02.861Z,0.10
2023-01-26T17:08:32.242Z,0.10
2023-01-26T17:11:03.175Z,0.10
2023-01-26T17:13:33.282Z,0.60
2023-01-26T17:16:02.656Z,0.10
2023-01-26T17:18:33.942Z,0.10
2023-01-26T17:21:07.542Z,0.70
2023-01-26T17:23:38.642Z,0.10
2023-01-26T17:26:11.097Z,0.10
2023-01-26T17:28:40.582Z,0.50
2023-01-26T17:31:11.736Z,0.10
2023-01-26T17:33:41.276Z,0.10
2023-01-26T17:36:11.026Z,0.10
2023-01-26T17:38:40.115Z,0.10
2023-01-26T17:41:11.274Z,0.10
2023-01-26T17:43:40.652Z,0.10
2023-01-26T17:46:13.176Z,0.10
2023-01-26T17:48:44.966Z,0.10
2023-01-26T17:51:17.056Z,0.10
2023-01-26T17:53:47.728Z,0.10
2023-01-26T17:56:20.571Z,0.70
2023-01-26T17:58:51.086Z,0.10
2023-01-26T18:01:21.831Z,0.10
2023-01-26T18:03:51.859Z,0.10
2023-01-26T18:06:21.417Z,0.10
2023-01-26T18:08:50.867Z,0.10
2023-01-26T18:11:22.248Z,0.10
2023-01-26T18:13:52.814Z,0.10
2023-01-26T18:16:23.270Z,0.10
2023-01-26T18:18:56.323Z,0.10
2023-01-26T18:21:27.983Z,0.10
2023-01-26T18:23:59.838Z,0.10
2023-01-26T18:26:32.599Z,0.00
2023-01-26T18:29:01.650Z,0.00
2023-01-26T18:31:33.885Z,0.10
2023-01-26T18:34:04.442Z,0.10
2023-01-26T18:36:34.390Z,0.10
2023-01-26T18:39:06.915Z,0.20
2023-01-26T18:41:40.891Z,0.10
2023-01-26T18:44:10.121Z,0.10
2023-01-26T18:46:39.740Z,0.10
2023-01-26T18:49:09.268Z,0.10
2023-01-26T18:51:40.286Z,0.10
2023-01-26T18:54:12.838Z,0.10
2023-01-26T18:56:43.889Z,0.10
2023-01-26T18:59:13.035Z,0.00
2023-01-26T19:01:44.176Z,0.00
2023-01-26T19:04:15.003Z,0.10
2023-01-26T19:06:44.863Z,0.10
2023-01-26T19:09:15.705Z,0.10
2023-01-26T19:11:46.489Z,0.10
2023-01-26T19:14:16.438Z,-0.80
2023-01-26T19:16:48.144Z,0.10
2023-01-26T19:19:17.619Z,0.10
2023-01-26T19:21:47.276Z,0.10
2023-01-26T19:24:21.318Z,0.10
2023-01-26T19:26:51.510Z,0.00
2023-01-26T19:29:21.076Z,0.10
2023-01-26T19:31:50.981Z,0.00
2023-01-26T19:34:20.364Z,0.10
2023-01-26T19:36:50.242Z,0.20
2023-01-26T19:39:19.938Z,0.30
2023-01-26T19:41:50.609Z,0.30
2023-01-26T19:44:21.659Z,0.30
2023-01-26T19:46:54.485Z,0.30
2023-01-26T19:49:25.021Z,0.30
2023-01-26T19:51:55.183Z,0.30
2023-01-26T19:54:24.535Z,0.40
2023-01-26T19:56:54.039Z,0.40
2023-01-26T19:59:26.515Z,0.30
2023-01-26T20:01:57.379Z,0.40
2023-01-26T20:04:26.987Z,0.30
2023-01-26T20:06:57.357Z,0.30
2023-01-26T20:09:27.517Z,0.30
2023-01-26T20:11:56.851Z,0.40
2023-01-26T20:14:27.874Z,0.30
2023-01-26T20:16:57.264Z,0.30
2023-01-26T20:19:27.035Z,0.30
2023-01-26T20:21:59.932Z,0.30
2023-01-26T20:24:30.331Z,0.30
2023-01-26T20:27:00.026Z,0.30
2023-01-26T20:29:30.265Z,1.10
2023-01-26T20:31:59.908Z,0.30
2023-01-26T20:34:29.359Z,0.30
2023-01-26T20:37:00.752Z,0.40
2023-01-26T20:39:30.239Z,0.30
2023-01-26T20:42:00.053Z,0.30
2023-01-26T20:44:31.073Z,0.40
2023-01-26T20:47:00.328Z,0.30
2023-01-26T20:49:34.601Z,0.30
2023-01-26T20:52:06.583Z,0.30
2023-01-26T20:54:37.326Z,0.40
2023-01-26T20:57:08.344Z,0.40
2023-01-26T20:59:39.311Z,0.40
2023-01-26T21:02:11.368Z,0.40
2023-01-26T21:04:40.732Z,0.40
2023-01-26T21:07:11.011Z,0.40
2023-01-26T21:09:40.656Z,0.40
2023-01-26T21:12:12.819Z,0.30
2023-01-26T21:14:45.434Z,0.30
2023-01-26T21:17:15.996Z,0.30
2023-01-26T21:19:45.232Z,0.70
2023-01-26T21:22:15.860Z,0.30
2023-01-26T21:24:45.288Z,0.30
2023-01-26T21:27:14.343Z,0.30
2023-01-26T21:29:45.586Z,0.20
2023-01-26T21:32:16.552Z,0.20
2023-01-26T21:34:45.446Z,0.10
2023-01-26T21:37:14.742Z,0.10
2023-01-26T21:39:44.357Z,0.10
2023-01-26T21:42:16.652Z,0.10
2023-01-26T21:45:05.003Z,0.40
2023-01-26T21:47:34.509Z,0.10
2023-01-26T21:50:03.813Z,0.10
2023-01-26T21:52:50.088Z,0.00
2023-01-26T21:55:19.675Z,0.00
2023-01-26T21:58:06.123Z,0.00
2023-01-26T22:00:37.023Z,0.40
2023-01-26T22:03:06.416Z,0.00
2023-01-26T22:05:36.414Z,0.00
2023-01-26T22:08:08.366Z,-0.10
2023-01-26T22:10:37.908Z,-0.10
2023-01-26T22:13:07.831Z,0.00
2023-01-26T22:15:38.332Z,0.00
2023-01-26T22:18:07.600Z,0.20
2023-01-26T22:20:37.493Z,0.00
2023-01-26T22:23:07.521Z,0.00
2023-01-26T22:25:39.058Z,-0.10
2023-01-26T22:28:09.039Z,0.60
2023-01-26T22:30:39.833Z,-0.10
2023-01-26T22:33:08.936Z,-0.10
2023-01-26T22:35:38.521Z,-0.10
2023-01-26T22:38:07.991Z,0.60
2023-01-26T22:40:39.161Z,-0.10
2023-01-26T22:43:09.356Z,-0.10
2023-01-26T22:45:42.079Z,-0.10
2023-01-26T22:48:11.172Z,-0.10
2023-01-26T22:50:43.156Z,-0.10
2023-01-26T22:53:12.873Z,-0.10
2023-01-26T22:55:43.021Z,-0.10
2023-01-26T22:58:12.886Z,0.00
2023-01-26T23:00:43.493Z,0.00
2023-01-26T23:03:12.985Z,0.00
2023-01-26T23:05:41.790Z,0.00
2023-01-26T23:08:11.086Z,0.00
2023-01-26T23:10:40.724Z,0.00
2023-01-26T23:13:10.448Z,0.00
2023-01-26T23:15:40.626Z,0.00
2023-01-26T23:18:12.264Z,0.10
2023-01-26T23:20:41.549Z,0.20
2023-01-26T23:23:10.678Z,0.30
2023-01-26T23:25:54.650Z,0.00
2023-01-26T23:28:25.139Z,0.20
2023-01-26T23:30:55.450Z,0.10
2023-01-26T23:33:28.494Z,0.00
2023-01-26T23:35:58.008Z,0.00
2023-01-26T23:38:29.332Z,0.00
2023-01-26T23:41:00.661Z,0.00
2023-01-26T23:43:30.041Z,0.00
2023-01-26T23:45:59.320Z,-0.10
2023-01-26T23:48:30.056Z,-0.10
2023-01-26T23:51:00.377Z,0.00
2023-01-26T23:53:31.373Z,-0.10
2023-01-26T23:56:01.868Z,-0.10
2023-01-26T23:58:30.785Z,-0.10
